Time;durP1;ratioP1;P1;durP2;ratioP2;P2;SDS_P1;SDS_P2;PMS_P1;PMS_P2;Temp;Humidity;BMP_temperature;BMP_pressure;BME280_temperature;BME280_humidity;BME280_pressure;Samples;Min_cycle;Max_cycle;Signal;HPM_P1;HPM_P2
2021/06/28 00:02:04;;;;;;;9.40;8.38;;;;;;;;;;4998563;28;20426;-89
2021/06/28 00:04:31;;;;;;;9.77;8.85;;;;;;;;;;4999861;28;20415;-89
2021/06/28 00:06:59;;;;;;;11.23;8.63;;;;;;;;;;4999213;28;20431;-90
2021/06/28 00:09:26;;;;;;;10.68;8.55;;;;;;;;;;5004477;28;20411;-89
2021/06/28 00:11:55;;;;;;;12.02;8.98;;;;;;;;;;4995448;28;20409;-88
2021/06/28 00:14:22;;;;;;;10.63;8.77;;;;;;;;;;5001999;28;20482;-89
2021/06/28 00:16:49;;;;;;;9.80;8.90;;;;;;;;;;4998861;28;20406;-89
2021/06/28 00:19:16;;;;;;;9.73;8.85;;;;;;;;;;5000167;28;20878;-88
2021/06/28 00:21:43;;;;;;;9.70;8.63;;;;;;;;;;4996962;28;20413;-89
2021/06/28 00:24:10;;;;;;;9.43;8.52;;;;;;;;;;4999438;28;20748;-89
2021/06/28 00:26:38;;;;;;;9.55;8.52;;;;;;;;;;4999210;28;20433;-89
2021/06/28 00:29:07;;;;;;;10.57;9.57;;;;;;;;;;4997623;28;20839;-89
2021/06/28 00:31:34;;;;;;;9.73;8.75;;;;;;;;;;4992572;28;20531;-89
2021/06/28 00:34:01;;;;;;;10.85;9.10;;;;;;;;;;4998727;28;20484;-89
2021/06/28 00:36:28;;;;;;;10.90;9.67;;;;;;;;;;4999797;28;20403;-89
2021/06/28 00:38:55;;;;;;;10.18;9.27;;;;;;;;;;5003351;28;20415;-87
2021/06/28 00:41:22;;;;;;;9.65;8.65;;;;;;;;;;4998935;28;20466;-90
2021/06/28 00:43:50;;;;;;;8.95;8.05;;;;;;;;;;4996758;28;20438;-89
2021/06/28 00:46:18;;;;;;;11.00;8.18;;;;;;;;;;4998359;28;20531;-90
2021/06/28 00:48:45;;;;;;;8.30;7.50;;;;;;;;;;5002056;28;20421;-87
2021/06/28 00:51:12;;;;;;;9.32;8.32;;;;;;;;;;5000727;28;20939;-87
2021/06/28 00:53:39;;;;;;;9.07;8.07;;;;;;;;;;4998949;28;20904;-88
2021/06/28 00:56:12;;;;;;;8.40;7.70;;;;;;;;;;5004053;28;20415;-89
2021/06/28 00:58:40;;;;;;;9.00;8.10;;;;;;;;;;4997776;28;20443;-89
2021/06/28 01:01:09;;;;;;;9.90;8.90;;;;;;;;;;5001219;28;20416;-88
2021/06/28 01:03:37;;;;;;;9.07;8.18;;;;;;;;;;5000642;28;20404;-89
2021/06/28 01:06:05;;;;;;;9.85;8.25;;;;;;;;;;5001908;28;20422;-88
2021/06/28 01:08:33;;;;;;;9.30;7.93;;;;;;;;;;5000428;28;20419;-89
2021/06/28 01:11:01;;;;;;;9.02;8.23;;;;;;;;;;5000713;28;20492;-89
2021/06/28 01:13:30;;;;;;;9.00;8.10;;;;;;;;;;5003763;28;20415;-89
2021/06/28 01:15:57;;;;;;;8.95;8.05;;;;;;;;;;5012532;28;20454;-89
2021/06/28 01:18:25;;;;;;;9.10;8.15;;;;;;;;;;5011971;28;20421;-90
2021/06/28 01:20:53;;;;;;;10.77;8.73;;;;;;;;;;5011183;28;20417;-89
2021/06/28 01:23:25;;;;;;;9.17;8.27;;;;;;;;;;5014761;28;20434;-90
2021/06/28 01:25:55;;;;;;;9.00;8.20;;;;;;;;;;5001479;28;20417;-88
2021/06/28 01:28:23;;;;;;;8.97;7.87;;;;;;;;;;4998262;28;20426;-89
2021/06/28 01:30:52;;;;;;;8.93;8.13;;;;;;;;;;4995821;28;20401;-89
2021/06/28 01:33:20;;;;;;;9.00;8.07;;;;;;;;;;4999108;28;20461;-89
2021/06/28 01:35:47;;;;;;;9.20;8.30;;;;;;;;;;5002657;28;20406;-92
2021/06/28 01:38:15;;;;;;;9.52;7.85;;;;;;;;;;5001569;28;20423;-89
2021/06/28 01:40:43;;;;;;;8.70;7.88;;;;;;;;;;4999745;28;20418;-88
2021/06/28 01:43:11;;;;;;;8.80;8.00;;;;;;;;;;4997089;28;20443;-87
2021/06/28 01:45:39;;;;;;;9.70;7.90;;;;;;;;;;5000755;28;20415;-90
2021/06/28 01:48:07;;;;;;;10.07;8.10;;;;;;;;;;4997319;28;20429;-89
2021/06/28 01:50:38;;;;;;;9.30;7.90;;;;;;;;;;4997579;28;20415;-90
2021/06/28 01:53:06;;;;;;;8.82;7.88;;;;;;;;;;4996852;28;20419;-88
2021/06/28 01:55:34;;;;;;;8.18;7.40;;;;;;;;;;5002341;28;20407;-89
2021/06/28 01:58:04;;;;;;;8.70;7.85;;;;;;;;;;4998493;28;20408;-89
2021/06/28 02:00:35;;;;;;;7.90;7.20;;;;;;;;;;4996028;28;20420;-90
2021/06/28 02:03:05;;;;;;;9.23;8.30;;;;;;;;;;4986562;28;20407;-89
2021/06/28 02:05:35;;;;;;;9.07;8.10;;;;;;;;;;5005005;28;20443;-90
2021/06/28 02:08:04;;;;;;;9.70;8.70;;;;;;;;;;5005343;28;20510;-90
2021/06/28 02:10:31;;;;;;;8.85;7.95;;;;;;;;;;5005651;28;20460;-90
2021/06/28 02:12:58;;;;;;;9.13;8.20;;;;;;;;;;5005599;28;20590;-89
2021/06/28 02:15:29;;;;;;;10.07;7.93;;;;;;;;;;5006092;28;20925;-90
2021/06/28 02:17:56;;;;;;;8.77;7.88;;;;;;;;;;5005839;28;20415;-88
2021/06/28 02:20:24;;;;;;;8.27;7.47;;;;;;;;;;5001234;28;20488;-90
2021/06/28 02:22:52;;;;;;;9.82;7.13;;;;;;;;;;5005579;28;20754;-89
2021/06/28 02:25:20;;;;;;;9.30;7.43;;;;;;;;;;5005523;28;20423;-89
2021/06/28 02:27:48;;;;;;;8.05;7.20;;;;;;;;;;5005314;28;21343;-89
2021/06/28 02:30:18;;;;;;;8.20;7.35;;;;;;;;;;5005494;28;20744;-89
2021/06/28 02:32:47;;;;;;;8.47;7.67;;;;;;;;;;5005528;28;20916;-90
2021/06/28 02:35:15;;;;;;;7.70;7.00;;;;;;;;;;5005648;28;21332;-89
2021/06/28 02:37:43;;;;;;;7.97;7.25;;;;;;;;;;5005345;28;20406;-89
2021/06/28 02:40:13;;;;;;;8.48;7.65;;;;;;;;;;5005727;28;20409;-89
2021/06/28 02:42:41;;;;;;;9.23;7.55;;;;;;;;;;4997788;28;20417;-90
2021/06/28 02:45:09;;;;;;;8.65;7.47;;;;;;;;;;5005717;28;20771;-90
2021/06/28 02:47:37;;;;;;;10.45;7.80;;;;;;;;;;5005362;28;20433;-90
2021/06/28 02:50:08;;;;;;;9.63;8.63;;;;;;;;;;5005252;28;20415;-90
2021/06/28 02:52:36;;;;;;;9.13;8.27;;;;;;;;;;5004987;28;20418;-89
2021/06/28 02:55:03;;;;;;;9.45;8.18;;;;;;;;;;5005260;28;20421;-87
2021/06/28 02:57:30;;;;;;;8.85;8.05;;;;;;;;;;5005285;28;20943;-90
2021/06/28 02:59:57;;;;;;;9.00;8.10;;;;;;;;;;5005360;28;21107;-90
2021/06/28 03:02:24;;;;;;;8.75;7.95;;;;;;;;;;5005296;28;20514;-89
2021/06/28 03:04:51;;;;;;;10.00;8.20;;;;;;;;;;5005066;28;20414;-89
2021/06/28 03:07:20;;;;;;;8.63;7.90;;;;;;;;;;5005337;28;20415;-88
2021/06/28 03:09:47;;;;;;;8.90;8.02;;;;;;;;;;5004842;28;20933;-90
2021/06/28 03:12:14;;;;;;;8.55;7.75;;;;;;;;;;5005249;28;20879;-90
2021/06/28 03:14:41;;;;;;;9.65;8.50;;;;;;;;;;5005064;28;20418;-88
2021/06/28 03:17:08;;;;;;;9.27;8.38;;;;;;;;;;5001911;28;20417;-90
2021/06/28 03:19:35;;;;;;;9.32;8.40;;;;;;;;;;5005148;28;20757;-90
2021/06/28 03:22:03;;;;;;;8.52;7.72;;;;;;;;;;5001075;28;20415;-89
2021/06/28 03:24:31;;;;;;;8.50;7.60;;;;;;;;;;5004958;28;20902;-87
2021/06/28 03:26:58;;;;;;;8.75;7.78;;;;;;;;;;5004656;28;20434;-88
2021/06/28 03:29:25;;;;;;;8.88;8.07;;;;;;;;;;5005095;28;20405;-87
2021/06/28 03:31:52;;;;;;;9.03;8.33;;;;;;;;;;5005354;28;20924;-87
2021/06/28 03:34:19;;;;;;;9.27;8.00;;;;;;;;;;5004851;28;20402;-90
2021/06/28 03:36:46;;;;;;;9.07;8.20;;;;;;;;;;5005074;28;20414;-90
2021/06/28 03:39:13;;;;;;;9.73;8.40;;;;;;;;;;5004635;28;20410;-90
2021/06/28 03:41:42;;;;;;;12.18;8.70;;;;;;;;;;5004982;28;20421;-89
2021/06/28 03:44:09;;;;;;;9.20;8.30;;;;;;;;;;5001542;28;20415;-89
2021/06/28 03:46:36;;;;;;;10.38;8.38;;;;;;;;;;5001803;28;20407;-90
2021/06/28 03:49:03;;;;;;;9.55;8.60;;;;;;;;;;5004390;28;20430;-89
2021/06/28 03:51:31;;;;;;;10.07;8.98;;;;;;;;;;5004559;28;20426;-88
2021/06/28 03:53:58;;;;;;;11.52;8.80;;;;;;;;;;5005108;28;20561;-89
2021/06/28 03:56:25;;;;;;;10.20;9.27;;;;;;;;;;5005244;28;20835;-88
2021/06/28 03:58:53;;;;;;;12.40;9.45;;;;;;;;;;5005061;28;20407;-90
2021/06/28 04:01:20;;;;;;;9.93;8.93;;;;;;;;;;5005153;28;20882;-89
2021/06/28 04:03:49;;;;;;;10.55;9.45;;;;;;;;;;5004432;28;20910;-90
2021/06/28 04:06:16;;;;;;;10.73;8.80;;;;;;;;;;4999763;28;20414;-88
2021/06/28 04:08:43;;;;;;;9.70;8.52;;;;;;;;;;5003770;28;20493;-90
2021/06/28 04:11:10;;;;;;;10.35;9.23;;;;;;;;;;4998375;28;20407;-89
2021/06/28 04:13:37;;;;;;;10.45;9.35;;;;;;;;;;5000741;28;20417;-89
2021/06/28 04:16:06;;;;;;;13.57;8.88;;;;;;;;;;5005583;28;20418;-89
2021/06/28 04:18:33;;;;;;;10.93;8.97;;;;;;;;;;5001550;28;20418;-89
2021/06/28 04:21:00;;;;;;;9.87;8.87;;;;;;;;;;4995848;28;20409;-90
2021/06/28 04:23:27;;;;;;;9.60;8.73;;;;;;;;;;5005180;28;20465;-88
2021/06/28 04:25:54;;;;;;;9.93;8.90;;;;;;;;;;4997875;28;20423;-89
2021/06/28 04:28:21;;;;;;;10.80;9.25;;;;;;;;;;5000148;28;20889;-90
2021/06/28 04:30:48;;;;;;;10.32;8.85;;;;;;;;;;4993896;28;20495;-89
2021/06/28 04:33:17;;;;;;;9.60;8.73;;;;;;;;;;4998477;28;20501;-90
2021/06/28 04:35:44;;;;;;;9.93;8.90;;;;;;;;;;4999762;28;20424;-89
2021/06/28 04:38:11;;;;;;;11.10;9.23;;;;;;;;;;4994149;28;20396;-90
2021/06/28 04:40:38;;;;;;;10.82;8.98;;;;;;;;;;4995665;28;20774;-90
2021/06/28 04:43:05;;;;;;;11.82;8.68;;;;;;;;;;4998854;28;20411;-90
2021/06/28 04:45:32;;;;;;;11.50;9.07;;;;;;;;;;5002951;28;20399;-89
2021/06/28 04:47:59;;;;;;;10.90;8.57;;;;;;;;;;4996606;28;21079;-89
2021/06/28 04:50:27;;;;;;;10.35;8.20;;;;;;;;;;4991216;28;20416;-90
2021/06/28 04:52:56;;;;;;;10.02;8.30;;;;;;;;;;4996112;28;20411;-90
2021/06/28 04:55:24;;;;;;;9.50;8.68;;;;;;;;;;4997754;28;20775;-90
2021/06/28 04:57:51;;;;;;;9.73;8.70;;;;;;;;;;4999627;28;20415;-90
2021/06/28 05:00:20;;;;;;;9.82;8.23;;;;;;;;;;4998460;28;21050;-90
2021/06/28 05:02:48;;;;;;;9.47;8.50;;;;;;;;;;4997216;28;20407;-90
2021/06/28 05:05:15;;;;;;;11.27;8.85;;;;;;;;;;4999223;28;20413;-90
2021/06/28 05:07:44;;;;;;;8.70;7.80;;;;;;;;;;4999456;28;20418;-90
2021/06/28 05:10:13;;;;;;;9.70;8.10;;;;;;;;;;4995995;28;20412;-90
2021/06/28 05:12:40;;;;;;;9.07;7.93;;;;;;;;;;4999442;28;20423;-90
2021/06/28 05:15:08;;;;;;;9.13;7.80;;;;;;;;;;4989176;28;20412;-87
2021/06/28 05:17:35;;;;;;;11.45;7.57;;;;;;;;;;4990074;28;20824;-88
2021/06/28 05:20:03;;;;;;;7.80;7.03;;;;;;;;;;4991157;28;20662;-90
2021/06/28 05:22:30;;;;;;;12.20;6.90;;;;;;;;;;4995344;28;20416;-91
2021/06/28 05:24:59;;;;;;;9.00;7.30;;;;;;;;;;5001311;28;20410;-88
2021/06/28 05:27:26;;;;;;;9.85;7.70;;;;;;;;;;4994802;28;20503;-77
2021/06/28 05:29:56;;;;;;;9.07;7.50;;;;;;;;;;4993837;28;20808;-77
2021/06/28 05:32:23;;;;;;;8.93;7.70;;;;;;;;;;4992877;28;20915;-77
2021/06/28 05:34:50;;;;;;;8.75;6.80;;;;;;;;;;4998205;28;20813;-77
2021/06/28 05:37:18;;;;;;;9.23;6.95;;;;;;;;;;4995664;28;20514;-90
2021/06/28 05:39:45;;;;;;;10.75;6.60;;;;;;;;;;5003134;28;20471;-90
2021/06/28 05:42:14;;;;;;;8.95;7.30;;;;;;;;;;4994182;28;20403;-78
2021/06/28 05:44:41;;;;;;;12.30;7.60;;;;;;;;;;4995072;28;20399;-90
2021/06/28 05:47:08;;;;;;;9.07;6.57;;;;;;;;;;5015396;28;20410;-91
2021/06/28 05:49:37;;;;;;;9.05;6.25;;;;;;;;;;5014445;28;20413;-90
2021/06/28 05:52:05;;;;;;;8.15;5.60;;;;;;;;;;4999727;28;20417;-89
2021/06/28 05:54:32;;;;;;;7.97;5.45;;;;;;;;;;4996186;28;20415;-89
2021/06/28 05:57:00;;;;;;;11.80;5.75;;;;;;;;;;4990478;28;20407;-90
2021/06/28 05:59:28;;;;;;;8.65;5.60;;;;;;;;;;4991806;28;20407;-92
2021/06/28 06:01:55;;;;;;;9.82;5.80;;;;;;;;;;4991468;28;20776;-92
2021/06/28 06:04:22;;;;;;;7.93;5.85;;;;;;;;;;4996015;28;20420;-92
2021/06/28 06:06:49;;;;;;;8.40;5.60;;;;;;;;;;4994972;28;20805;-92
2021/06/28 06:09:16;;;;;;;6.17;5.20;;;;;;;;;;4993228;28;20423;-90
2021/06/28 06:11:43;;;;;;;5.77;4.47;;;;;;;;;;4994811;28;20417;-92
2021/06/28 06:14:10;;;;;;;6.53;4.43;;;;;;;;;;4990865;28;20427;-92
2021/06/28 06:16:38;;;;;;;5.23;3.93;;;;;;;;;;4990412;28;21204;-90
2021/06/28 06:19:06;;;;;;;5.00;4.13;;;;;;;;;;4990452;28;20424;-91
2021/06/28 06:21:33;;;;;;;5.20;4.00;;;;;;;;;;4992839;28;20403;-91
2021/06/28 06:24:00;;;;;;;5.37;4.60;;;;;;;;;;4990599;28;20745;-90
2021/06/28 06:26:27;;;;;;;5.53;4.20;;;;;;;;;;4991900;28;20407;-91
2021/06/28 06:28:54;;;;;;;8.20;4.90;;;;;;;;;;5005516;23;20428;-81
2021/06/28 06:31:21;;;;;;;7.43;4.45;;;;;;;;;;4995457;28;20467;-85
2021/06/28 06:33:49;;;;;;;5.38;4.32;;;;;;;;;;4996005;28;20897;-85
2021/06/28 06:36:16;;;;;;;7.38;4.93;;;;;;;;;;4991378;28;20419;-85
2021/06/28 06:38:43;;;;;;;4.78;4.28;;;;;;;;;;4993327;28;20777;-86
2021/06/28 06:41:10;;;;;;;4.72;4.18;;;;;;;;;;4992879;28;20423;-86
2021/06/28 06:43:37;;;;;;;6.65;4.60;;;;;;;;;;4993258;28;20465;-86
2021/06/28 06:46:04;;;;;;;7.10;4.25;;;;;;;;;;4990030;28;20407;-85
2021/06/28 06:48:31;;;;;;;6.30;4.70;;;;;;;;;;4988284;28;20419;-85
2021/06/28 06:50:59;;;;;;;9.55;4.60;;;;;;;;;;4992892;28;20420;-85
2021/06/28 06:53:26;;;;;;;9.73;4.90;;;;;;;;;;4993039;28;20661;-85
2021/06/28 06:55:53;;;;;;;9.95;5.60;;;;;;;;;;4990790;28;20416;-86
2021/06/28 06:58:20;;;;;;;8.90;5.63;;;;;;;;;;4990538;28;20408;-85
2021/06/28 07:00:47;;;;;;;10.10;5.60;;;;;;;;;;4991721;28;20417;-84
2021/06/28 07:03:14;;;;;;;14.48;5.25;;;;;;;;;;4989158;28;20405;-85
2021/06/28 07:05:41;;;;;;;11.88;5.55;;;;;;;;;;4994677;28;20779;-85
2021/06/28 07:08:09;;;;;;;8.13;4.82;;;;;;;;;;4990085;28;20409;-84
2021/06/28 07:10:36;;;;;;;8.23;4.88;;;;;;;;;;4988850;28;20973;-86
2021/06/28 07:13:03;;;;;;;10.23;4.70;;;;;;;;;;4990840;28;20492;-84
2021/06/28 07:15:30;;;;;;;13.40;4.75;;;;;;;;;;4989449;28;20411;-85
2021/06/28 07:17:57;;;;;;;9.17;4.40;;;;;;;;;;4988983;28;20415;-85
2021/06/28 07:20:24;;;;;;;7.30;5.18;;;;;;;;;;4993566;28;20412;-85
2021/06/28 07:22:52;;;;;;;7.47;4.50;;;;;;;;;;4989880;28;20452;-85
2021/06/28 07:25:21;;;;;;;9.50;4.78;;;;;;;;;;4994994;28;20410;-85
2021/06/28 07:27:49;;;;;;;10.77;5.07;;;;;;;;;;4996216;28;20924;-85
2021/06/28 07:30:18;;;;;;;9.75;4.60;;;;;;;;;;4992344;28;20559;-84
2021/06/28 07:32:45;;;;;;;9.95;4.90;;;;;;;;;;4993774;28;20459;-85
2021/06/28 07:35:13;;;;;;;9.82;4.90;;;;;;;;;;4990674;28;20407;-85
2021/06/28 07:37:41;;;;;;;8.60;4.70;;;;;;;;;;4992150;28;20607;-85
2021/06/28 07:40:10;;;;;;;12.52;5.18;;;;;;;;;;4998676;28;20783;-85
2021/06/28 07:42:39;;;;;;;7.55;4.15;;;;;;;;;;4997705;28;20481;-84
2021/06/28 07:45:07;;;;;;;12.93;5.15;;;;;;;;;;4998369;28;20892;-84
2021/06/28 07:47:34;;;;;;;8.85;5.50;;;;;;;;;;5001363;28;20421;-83
2021/06/28 07:50:01;;;;;;;8.20;4.63;;;;;;;;;;4996370;28;20951;-85
2021/06/28 07:52:29;;;;;;;7.90;4.47;;;;;;;;;;5001666;28;20473;-85
2021/06/28 07:54:57;;;;;;;16.08;4.70;;;;;;;;;;4999855;28;20427;-85
2021/06/28 07:57:24;;;;;;;11.55;4.45;;;;;;;;;;5003636;28;20411;-85
2021/06/28 07:59:52;;;;;;;9.10;4.60;;;;;;;;;;4996193;28;20832;-85
2021/06/28 08:02:19;;;;;;;11.13;4.60;;;;;;;;;;4995807;28;20419;-85
2021/06/28 08:04:46;;;;;;;9.93;4.57;;;;;;;;;;4995868;28;20816;-85
2021/06/28 08:07:13;;;;;;;6.75;4.60;;;;;;;;;;4989239;28;20490;-85
2021/06/28 08:09:39;;;;;;;8.13;5.30;;;;;;;;;;4995924;28;20429;-86
2021/06/28 08:12:07;;;;;;;9.23;4.68;;;;;;;;;;4995938;28;20401;-85
2021/06/28 08:14:34;;;;;;;5.90;4.13;;;;;;;;;;4991595;28;20457;-85
2021/06/28 08:17:04;;;;;;;5.60;3.88;;;;;;;;;;4992231;28;20436;-85
2021/06/28 08:19:31;;;;;;;9.50;4.13;;;;;;;;;;4995510;28;20473;-85
2021/06/28 08:21:58;;;;;;;6.35;3.88;;;;;;;;;;4991883;28;20746;-85
2021/06/28 08:24:25;;;;;;;6.55;3.50;;;;;;;;;;4998908;28;20422;-85
2021/06/28 08:26:52;;;;;;;5.85;4.20;;;;;;;;;;4995464;28;20413;-85
2021/06/28 08:29:19;;;;;;;8.07;3.50;;;;;;;;;;4993354;28;20502;-86
2021/06/28 08:31:46;;;;;;;5.07;3.35;;;;;;;;;;4994821;28;20478;-85
2021/06/28 08:34:15;;;;;;;8.43;3.53;;;;;;;;;;4990202;28;20931;-85
2021/06/28 08:36:44;;;;;;;6.18;3.10;;;;;;;;;;4990828;28;20421;-85
2021/06/28 08:39:12;;;;;;;7.40;3.83;;;;;;;;;;4993079;28;20456;-85
2021/06/28 08:41:43;;;;;;;5.93;3.60;;;;;;;;;;4994654;28;20421;-85
2021/06/28 08:44:11;;;;;;;7.53;3.55;;;;;;;;;;4993337;28;20419;-85
2021/06/28 08:46:39;;;;;;;6.50;3.53;;;;;;;;;;4990081;28;20409;-85
2021/06/28 08:49:06;;;;;;;5.65;3.78;;;;;;;;;;4990783;28;20510;-85
2021/06/28 08:51:35;;;;;;;6.15;3.42;;;;;;;;;;4990316;28;20415;-85
2021/06/28 08:54:06;;;;;;;6.18;3.58;;;;;;;;;;4987980;28;21228;-84
2021/06/28 08:56:33;;;;;;;7.43;3.05;;;;;;;;;;4993009;28;20415;-85
2021/06/28 08:59:00;;;;;;;5.13;2.90;;;;;;;;;;4991506;28;20660;-83
2021/06/28 09:01:27;;;;;;;6.07;3.50;;;;;;;;;;4989785;28;20409;-85
2021/06/28 09:03:55;;;;;;;5.82;4.07;;;;;;;;;;4990265;28;20444;-85
2021/06/28 09:06:26;;;;;;;5.57;4.07;;;;;;;;;;4992067;28;20508;-86
2021/06/28 09:08:56;;;;;;;6.85;3.50;;;;;;;;;;4992357;28;21004;-84
2021/06/28 09:11:25;;;;;;;4.20;3.50;;;;;;;;;;4993348;28;20828;-85
2021/06/28 09:13:54;;;;;;;5.75;3.63;;;;;;;;;;4987274;28;20453;-84
2021/06/28 09:16:24;;;;;;;5.55;3.72;;;;;;;;;;4991710;28;20454;-84
2021/06/28 09:18:57;;;;;;;5.95;3.25;;;;;;;;;;4988475;28;20411;-84
2021/06/28 09:21:30;;;;;;;6.55;3.60;;;;;;;;;;4989038;28;20843;-84
2021/06/28 09:24:00;;;;;;;5.43;3.05;;;;;;;;;;4991285;28;20408;-84
2021/06/28 09:26:31;;;;;;;7.70;3.55;;;;;;;;;;4992616;28;20764;-84
2021/06/28 09:28:59;;;;;;;5.30;3.53;;;;;;;;;;4992701;28;20466;-83
2021/06/28 09:31:44;;;;;;;3.63;3.15;;;;;;;;;;4990327;28;20432;-84
2021/06/28 09:34:17;;;;;;;4.45;2.90;;;;;;;;;;4990798;28;20428;-82
2021/06/28 09:36:53;;;;;;;4.68;3.00;;;;;;;;;;4996594;28;20404;-83
2021/06/28 09:39:27;;;;;;;3.42;2.72;;;;;;;;;;4995290;28;20404;-85
2021/06/28 09:41:59;;;;;;;5.25;2.50;;;;;;;;;;4994196;28;20889;-84
2021/06/28 09:44:28;;;;;;;5.43;2.70;;;;;;;;;;4994575;28;20473;-85
2021/06/28 09:47:09;;;;;;;4.72;2.83;;;;;;;;;;4993887;28;20816;-83
2021/06/28 09:49:36;;;;;;;4.57;2.78;;;;;;;;;;4995918;28;20432;-85
2021/06/28 09:52:04;;;;;;;5.57;3.17;;;;;;;;;;4996165;28;20449;-85
2021/06/28 09:54:33;;;;;;;5.00;2.95;;;;;;;;;;4997519;28;20787;-85
2021/06/28 09:57:00;;;;;;;5.25;3.00;;;;;;;;;;4990648;28;20819;-83
2021/06/28 09:59:30;;;;;;;4.30;2.70;;;;;;;;;;5002240;28;20453;-84
2021/06/28 10:02:17;;;;;;;4.80;2.85;;;;;;;;;;4995325;28;20502;-84
2021/06/28 10:04:49;;;;;;;3.65;2.80;;;;;;;;;;4994118;28;20428;-84
2021/06/28 10:07:21;;;;;;;4.22;2.50;;;;;;;;;;4993359;28;20443;-84
2021/06/28 10:10:05;;;;;;;2.75;1.65;;;;;;;;;;4995999;28;20437;-84
2021/06/28 10:12:32;;;;;;;5.00;2.47;;;;;;;;;;4995001;28;20469;-83
2021/06/28 10:14:59;;;;;;;3.73;2.57;;;;;;;;;;4993286;28;20417;-84
2021/06/28 10:17:26;;;;;;;5.88;3.05;;;;;;;;;;4997553;28;20453;-83
2021/06/28 10:19:53;;;;;;;4.43;2.80;;;;;;;;;;4990784;28;20523;-84
2021/06/28 10:22:20;;;;;;;4.00;2.92;;;;;;;;;;4992509;28;20966;-85
2021/06/28 10:24:47;;;;;;;3.28;2.40;;;;;;;;;;4993144;28;20411;-84
2021/06/28 10:27:15;;;;;;;5.85;2.35;;;;;;;;;;4991254;28;20796;-85
2021/06/28 10:29:43;;;;;;;4.70;2.85;;;;;;;;;;4991419;28;20430;-85
2021/06/28 10:32:13;;;;;;;3.17;2.80;;;;;;;;;;4991822;28;20412;-85
2021/06/28 10:34:41;;;;;;;5.35;2.90;;;;;;;;;;4995716;28;20950;-86
2021/06/28 10:37:33;;;;;;;3.90;3.08;;;;;;;;;;4991892;28;20496;-85
2021/06/28 10:40:01;;;;;;;3.88;3.00;;;;;;;;;;4991596;28;20420;-87
2021/06/28 10:42:34;;;;;;;3.88;2.92;;;;;;;;;;4990221;28;20417;-86
2021/06/28 10:45:02;;;;;;;6.10;2.90;;;;;;;;;;4991416;28;20438;-86
2021/06/28 10:47:30;;;;;;;2.97;2.50;;;;;;;;;;4993949;28;20439;-86
2021/06/28 10:49:58;;;;;;;3.47;2.50;;;;;;;;;;4992507;28;20432;-86
2021/06/28 10:52:47;;;;;;;6.93;2.80;;;;;;;;;;4993425;28;20415;-84
2021/06/28 10:55:42;;;;;;;4.70;2.70;;;;;;;;;;4996566;28;20468;-84
2021/06/28 10:58:37;;;;;;;5.03;2.70;;;;;;;;;;4991066;28;20520;-84
2021/06/28 11:01:08;;;;;;;2.83;2.47;;;;;;;;;;4943034;28;20473;-85
2021/06/28 11:03:35;;;;;;;6.78;2.78;;;;;;;;;;4995530;28;20934;-84
2021/06/28 11:06:19;;;;;;;5.27;2.77;;;;;;;;;;4994755;28;20477;-85
2021/06/28 11:08:59;;;;;;;4.73;2.67;;;;;;;;;;4997249;28;20391;-85
2021/06/28 11:11:57;;;;;;;6.15;2.90;;;;;;;;;;4997083;28;20427;-85
2021/06/28 11:14:45;;;;;;;4.97;2.90;;;;;;;;;;4997049;28;20672;-85
2021/06/28 11:17:15;;;;;;;7.47;3.10;;;;;;;;;;4993196;28;20412;-85
2021/06/28 11:19:51;;;;;;;5.50;3.17;;;;;;;;;;5000264;28;20490;-85
2021/06/28 11:22:52;;;;;;;3.70;2.80;;;;;;;;;;5000280;28;20457;-86
2021/06/28 11:25:25;;;;;;;5.63;3.10;;;;;;;;;;4955902;28;20495;-85
2021/06/28 11:28:15;;;;;;;4.90;2.90;;;;;;;;;;4998170;28;20426;-85
2021/06/28 11:30:49;;;;;;;4.00;3.00;;;;;;;;;;4994975;28;20915;-85
2021/06/28 11:33:17;;;;;;;3.72;2.67;;;;;;;;;;5000673;28;20502;-85
2021/06/28 11:35:46;;;;;;;6.15;2.85;;;;;;;;;;4992580;28;20471;-85
2021/06/28 11:38:15;;;;;;;4.15;2.70;;;;;;;;;;4998722;28;20410;-85
2021/06/28 11:40:45;;;;;;;3.53;2.72;;;;;;;;;;4998736;28;20646;-84
2021/06/28 11:43:12;;;;;;;3.63;2.90;;;;;;;;;;4995377;28;20783;-85
2021/06/28 11:45:52;;;;;;;3.78;2.90;;;;;;;;;;4993477;28;20427;-84
2021/06/28 11:48:40;;;;;;;6.07;3.13;;;;;;;;;;4993867;28;20413;-84
2021/06/28 11:51:16;;;;;;;5.05;3.30;;;;;;;;;;4993567;28;21109;-84
2021/06/28 11:53:44;;;;;;;4.50;2.95;;;;;;;;;;4994973;28;20424;-84
2021/06/28 11:56:20;;;;;;;3.90;3.20;;;;;;;;;;4996478;28;20811;-85
2021/06/28 11:59:02;;;;;;;5.30;3.00;;;;;;;;;;4995460;28;20407;-85
2021/06/28 12:01:33;;;;;;;4.25;2.95;;;;;;;;;;4993525;28;20915;-85
2021/06/28 12:04:02;;;;;;;5.70;2.92;;;;;;;;;;4994489;28;20404;-85
2021/06/28 12:06:33;;;;;;;4.13;2.63;;;;;;;;;;4997684;28;20404;-84
2021/06/28 12:09:08;;;;;;;4.30;2.40;;;;;;;;;;4995653;28;20821;-85
2021/06/28 12:11:54;;;;;;;7.10;2.72;;;;;;;;;;4959796;28;20878;-85
2021/06/28 12:14:36;;;;;;;5.93;2.83;;;;;;;;;;4995122;28;20413;-85
2021/06/28 12:17:11;;;;;;;4.43;2.60;;;;;;;;;;4990603;28;21316;-85
2021/06/28 12:19:39;;;;;;;3.17;2.50;;;;;;;;;;4994792;28;20411;-85
2021/06/28 12:22:14;;;;;;;6.20;2.70;;;;;;;;;;4994794;28;20460;-85
2021/06/28 12:24:42;;;;;;;3.20;2.40;;;;;;;;;;4992957;28;20410;-85
2021/06/28 12:27:11;;;;;;;3.88;2.60;;;;;;;;;;4996436;28;20419;-85
2021/06/28 12:29:40;;;;;;;3.65;2.67;;;;;;;;;;4994242;28;20724;-85
2021/06/28 12:32:19;;;;;;;5.43;2.53;;;;;;;;;;4997170;28;20444;-86
2021/06/28 12:34:48;;;;;;;5.03;2.58;;;;;;;;;;4991848;28;20889;-85
2021/06/28 12:37:21;;;;;;;5.40;2.60;;;;;;;;;;4993615;28;20426;-85
2021/06/28 12:39:49;;;;;;;3.92;2.60;;;;;;;;;;4993889;28;20405;-85
2021/06/28 12:42:18;;;;;;;2.92;2.45;;;;;;;;;;4994162;28;20899;-85
2021/06/28 12:44:45;;;;;;;4.47;2.70;;;;;;;;;;4993470;28;20428;-85
2021/06/28 12:47:16;;;;;;;6.00;2.58;;;;;;;;;;4994868;28;20497;-85
2021/06/28 12:49:43;;;;;;;4.15;2.67;;;;;;;;;;4996327;28;20399;-85
2021/06/28 12:52:32;;;;;;;3.13;2.30;;;;;;;;;;5000205;28;20438;-85
2021/06/28 12:55:07;;;;;;;4.93;2.40;;;;;;;;;;5000506;28;20434;-85
2021/06/28 12:57:34;;;;;;;3.17;2.20;;;;;;;;;;5001288;28;20869;-85
2021/06/28 13:00:02;;;;;;;5.20;2.33;;;;;;;;;;4994209;28;20769;-85
2021/06/28 13:02:32;;;;;;;3.63;2.30;;;;;;;;;;4994797;28;20463;-85
2021/06/28 13:05:07;;;;;;;5.95;2.60;;;;;;;;;;4994934;28;20409;-85
2021/06/28 13:07:34;;;;;;;4.80;2.30;;;;;;;;;;4994867;28;20422;-85
2021/06/28 13:10:02;;;;;;;3.90;2.50;;;;;;;;;;4993008;28;20413;-85
2021/06/28 13:12:29;;;;;;;4.20;2.42;;;;;;;;;;4994684;28;20951;-84
2021/06/28 13:15:21;;;;;;;4.38;2.60;;;;;;;;;;4994524;28;20444;-84
2021/06/28 13:17:56;;;;;;;3.67;2.38;;;;;;;;;;4991164;28;20495;-86
2021/06/28 13:20:25;;;;;;;6.25;2.15;;;;;;;;;;4988849;28;20448;-85
2021/06/28 13:22:53;;;;;;;3.92;2.20;;;;;;;;;;4992256;28;20403;-85
2021/06/28 13:25:21;;;;;;;2.28;2.03;;;;;;;;;;4990813;28;20405;-85
2021/06/28 13:27:49;;;;;;;3.88;2.30;;;;;;;;;;4994529;28;20635;-85
2021/06/28 13:30:21;;;;;;;4.95;2.05;;;;;;;;;;4996049;28;20799;-85
2021/06/28 13:32:49;;;;;;;4.07;2.28;;;;;;;;;;4992189;28;20435;-85
2021/06/28 13:35:32;;;;;;;5.97;2.00;;;;;;;;;;4992201;28;20912;-85
2021/06/28 13:38:10;;;;;;;2.65;1.90;;;;;;;;;;4990703;28;20417;-85
2021/06/28 13:40:37;;;;;;;3.67;1.80;;;;;;;;;;4992311;28;20830;-85
2021/06/28 13:43:04;;;;;;;4.25;2.03;;;;;;;;;;4998289;28;20459;-84
2021/06/28 13:45:39;;;;;;;1.90;1.80;;;;;;;;;;4998708;28;20405;-85
2021/06/28 13:48:09;;;;;;;3.83;2.10;;;;;;;;;;4996880;28;20963;-85
2021/06/28 13:50:40;;;;;;;3.88;2.17;;;;;;;;;;4993748;28;20695;-83
2021/06/28 13:53:10;;;;;;;3.00;2.30;;;;;;;;;;4995523;28;20411;-85
2021/06/28 13:55:38;;;;;;;2.75;1.90;;;;;;;;;;4992364;28;20404;-86
2021/06/28 13:58:06;;;;;;;3.60;1.65;;;;;;;;;;4995124;28;20508;-83
2021/06/28 14:00:37;;;;;;;3.90;1.88;;;;;;;;;;4997610;28;20411;-85
2021/06/28 14:03:06;;;;;;;4.57;1.80;;;;;;;;;;4994438;28;20407;-83
2021/06/28 14:05:33;;;;;;;2.22;1.92;;;;;;;;;;4992230;28;20399;-83
2021/06/28 14:08:01;;;;;;;3.30;1.92;;;;;;;;;;4989445;28;20459;-84
2021/06/28 14:10:28;;;;;;;4.00;1.75;;;;;;;;;;4988308;28;20465;-85
2021/06/28 14:12:55;;;;;;;3.72;1.85;;;;;;;;;;4992992;28;20414;-84
2021/06/28 14:15:22;;;;;;;2.50;1.70;;;;;;;;;;4990954;28;20450;-84
2021/06/28 14:17:49;;;;;;;2.33;1.60;;;;;;;;;;4991603;28;20399;-84
2021/06/28 14:20:19;;;;;;;3.17;1.80;;;;;;;;;;4992538;28;20418;-85
2021/06/28 14:22:49;;;;;;;3.95;1.70;;;;;;;;;;4992256;28;20896;-83
2021/06/28 14:25:21;;;;;;;1.80;1.40;;;;;;;;;;4986636;28;20787;-83
2021/06/28 14:27:48;;;;;;;4.55;1.92;;;;;;;;;;4990045;28;20869;-83
2021/06/28 14:30:16;;;;;;;2.63;1.60;;;;;;;;;;4986867;28;20904;-85
2021/06/28 14:32:45;;;;;;;2.67;1.45;;;;;;;;;;4990376;28;20427;-84
2021/06/28 14:35:12;;;;;;;2.65;1.50;;;;;;;;;;4989314;28;20414;-83
2021/06/28 14:37:39;;;;;;;3.40;1.60;;;;;;;;;;4995111;28;20430;-83
2021/06/28 14:40:08;;;;;;;4.80;1.67;;;;;;;;;;4995223;28;20421;-85
2021/06/28 14:42:36;;;;;;;2.67;1.58;;;;;;;;;;4997764;28;20410;-85
2021/06/28 14:45:05;;;;;;;3.15;1.52;;;;;;;;;;4992503;28;20414;-84
2021/06/28 14:47:32;;;;;;;3.30;1.60;;;;;;;;;;4987363;28;20425;-82
2021/06/28 14:49:59;;;;;;;3.28;1.60;;;;;;;;;;4987749;28;20417;-83
2021/06/28 14:52:26;;;;;;;5.40;1.70;;;;;;;;;;4989691;28;20433;-83
2021/06/28 14:54:55;;;;;;;2.97;1.60;;;;;;;;;;4991051;28;20412;-83